GUC weather

Public forecast

Using degrees Fahrenheit for public forecast. Weather courtesy of forecast.io.

Current aviation weather report (METAR) for Gunnison Crested Butte Regional Airport

Retrieved 2020/08/15 09:56 UTC (25 minutes ago):

KGUC 150956Z AUTO 01003KT 10SM CLR 11/M02 A3041 RMK AO2 SLP200 T01111022

Aviation forecast (TAF) for Gunnison Crested Butte Regional Airport

Forecast is more than 6 hours old.

Retrieved 2020-08-15 00:39 UTC (10 hours ago):

TAF KGUC 142336Z 1500/1524 30008KT P6SM FEW200 FM150400 01005KT P6SM FEW250 FM151200 VRB03KT P6SM SKC FM151700 26005KT P6SM SKC